Time;durP1;ratioP1;P1;durP2;ratioP2;P2;SDS_P1;SDS_P2;PMS_P1;PMS_P2;Temp;Humidity;BMP_temperature;BMP_pressure;BME280_temperature;BME280_humidity;BME280_pressure;Samples;Min_cycle;Max_cycle;Signal;HPM_P1;HPM_P2
2021/12/02 00:01:24;;;;;;;9.82;4.40;;;6.40;92.20;;;;;;5051543;28;20040;-73
2021/12/02 00:03:50;;;;;;;9.48;2.97;;;6.40;92.20;;;;;;5039278;28;20017;-73
2021/12/02 00:06:19;;;;;;;9.55;3.65;;;6.40;92.20;;;;;;5038893;28;20032;-73
2021/12/02 00:08:46;;;;;;;8.13;3.28;;;6.40;92.10;;;;;;5054685;28;20383;-73
2021/12/02 00:11:13;;;;;;;8.13;3.03;;;6.40;91.80;;;;;;5049440;28;20087;-73
2021/12/02 00:16:27;;;;;;;9.40;2.70;;;6.40;91.90;;;;;;5038168;28;20112;-73
2021/12/02 00:21:26;;;;;;;10.98;2.95;;;6.50;92.00;;;;;;5041042;28;20037;-73
2021/12/02 00:23:55;;;;;;;;;;;6.50;92.10;;;;;;5038714;28;20028;-73
2021/12/02 00:26:22;;;;;;;10.25;3.15;;;6.50;92.20;;;;;;5050872;28;19915;-73
2021/12/02 00:28:53;;;;;;;8.48;2.90;;;6.50;92.10;;;;;;5038396;28;20021;-73
2021/12/02 00:31:21;;;;;;;9.98;2.85;;;6.50;92.30;;;;;;5050925;28;20075;-73
2021/12/02 00:33:51;;;;;;;10.50;3.10;;;6.50;92.30;;;;;;5038127;28;20366;-73
2021/12/02 00:36:19;;;;;;;10.50;3.10;;;6.60;92.40;;;;;;5043662;28;20062;-73
2021/12/02 00:38:46;;;;;;;9.63;2.80;;;6.60;92.40;;;;;;5036725;28;20043;-73
2021/12/02 00:41:15;;;;;;;7.30;3.20;;;6.60;92.40;;;;;;5050942;28;20392;-73
2021/12/02 00:43:42;;;;;;;9.20;2.40;;;6.60;92.40;;;;;;5036635;28;20025;-73
2021/12/02 00:46:12;;;;;;;6.20;2.30;;;6.60;92.40;;;;;;5050537;28;20071;-73
2021/12/02 00:48:39;;;;;;;8.23;2.58;;;6.60;92.50;;;;;;5046433;28;20057;-73
2021/12/02 00:51:06;;;;;;;6.38;2.30;;;6.60;92.20;;;;;;5049276;28;20492;-73
2021/12/02 00:53:35;;;;;;;7.55;2.75;;;6.60;91.90;;;;;;5038007;28;20392;-73
2021/12/02 00:56:06;;;;;;;4.82;2.10;;;6.60;91.80;;;;;;5049312;28;20067;-74
2021/12/02 00:58:33;;;;;;;6.23;1.50;;;6.70;91.70;;;;;;5050813;28;20079;-73
2021/12/02 01:01:00;;;;;;;4.63;1.50;;;6.70;91.80;;;;;;5040035;28;20024;-74
2021/12/02 01:03:35;;;;;;;5.90;1.48;;;6.70;92.00;;;;;;5046153;28;20029;-74
2021/12/02 01:06:02;;;;;;;6.22;1.70;;;6.80;92.10;;;;;;5040380;28;20021;-74
2021/12/02 01:08:30;;;;;;;5.00;1.30;;;6.80;92.20;;;;;;5043321;28;20521;-74
2021/12/02 01:10:56;;;;;;;5.55;1.52;;;6.80;92.20;;;;;;5052079;28;20480;-74
2021/12/02 01:13:22;;;;;;;6.10;2.42;;;6.90;92.20;;;;;;5050603;28;20037;-74
2021/12/02 01:15:48;;;;;;;5.28;1.95;;;6.90;92.10;;;;;;5037279;28;20037;-74
2021/12/02 01:18:15;;;;;;;5.15;2.13;;;6.90;92.20;;;;;;5047084;28;20021;-74
2021/12/02 01:20:44;;;;;;;6.78;2.03;;;6.90;92.30;;;;;;5037983;28;20406;-75
2021/12/02 01:23:11;;;;;;;9.90;2.33;;;6.90;92.30;;;;;;5055755;28;20369;-74
2021/12/02 01:25:37;;;;;;;6.95;2.40;;;6.90;92.30;;;;;;5043855;28;20034;-74
2021/12/02 01:28:04;;;;;;;6.53;2.03;;;7.00;92.40;;;;;;5037434;28;20045;-74
2021/12/02 01:30:32;;;;;;;7.55;2.22;;;7.00;92.20;;;;;;5024969;28;20499;-74
2021/12/02 01:33:01;;;;;;;6.95;2.40;;;7.00;92.10;;;;;;5045750;28;20029;-74
2021/12/02 01:35:28;;;;;;;10.25;2.38;;;7.00;92.10;;;;;;5041333;28;20045;-74
2021/12/02 01:37:54;;;;;;;7.65;2.70;;;7.00;92.30;;;;;;5029472;28;20470;-74
2021/12/02 01:40:21;;;;;;;6.40;2.28;;;7.00;92.30;;;;;;5045146;28;20026;-74
2021/12/02 01:42:52;;;;;;;6.15;2.97;;;7.00;92.30;;;;;;5037046;28;20463;-74
2021/12/02 01:45:23;;;;;;;6.63;2.55;;;7.00;92.30;;;;;;5037007;28;20390;-74
2021/12/02 01:47:51;;;;;;;8.35;2.35;;;7.00;92.30;;;;;;5037171;28;20022;-74
2021/12/02 01:50:21;;;;;;;7.88;2.55;;;7.00;92.20;;;;;;5037377;28;20036;-74
2021/12/02 01:52:57;;;;;;;11.27;2.72;;;7.00;92.20;;;;;;5043227;28;20021;-74
2021/12/02 01:55:25;;;;;;;7.20;2.60;;;7.00;92.20;;;;;;5042136;28;20101;-74
2021/12/02 01:58:02;;;;;;;4.88;1.90;;;7.00;92.10;;;;;;5037483;28;20030;-74
2021/12/02 02:00:41;;;;;;;7.35;2.10;;;7.10;92.00;;;;;;5036804;28;20385;-74
2021/12/02 02:03:09;;;;;;;8.70;2.00;;;7.10;92.00;;;;;;5035668;28;20018;-74
2021/12/02 02:05:36;;;;;;;6.63;2.20;;;7.10;91.90;;;;;;5036638;28;20522;-74
2021/12/02 02:08:17;;;;;;;7.85;1.80;;;7.10;91.80;;;;;;5047373;28;20156;-74
2021/12/02 02:10:45;;;;;;;8.75;2.20;;;7.10;91.70;;;;;;5048361;28;20037;-74
2021/12/02 02:13:12;;;;;;;8.73;2.25;;;7.00;91.40;;;;;;5037308;28;20079;-74
2021/12/02 02:15:41;;;;;;;5.60;1.85;;;7.10;91.40;;;;;;5040422;28;20052;-74
2021/12/02 02:18:21;;;;;;;25.25;3.47;;;7.00;91.20;;;;;;5055885;28;20029;-74
2021/12/02 02:21:02;;;;;;;6.15;1.90;;;7.00;91.10;;;;;;5041391;28;20053;-74
2021/12/02 02:23:31;;;;;;;9.43;2.28;;;7.00;91.00;;;;;;5040500;28;20492;-74
2021/12/02 02:25:58;;;;;;;5.38;1.70;;;7.00;90.80;;;;;;5040773;28;20022;-73
2021/12/02 02:28:24;;;;;;;7.72;2.05;;;6.90;90.60;;;;;;5056204;28;20098;-74
2021/12/02 02:30:50;;;;;;;5.03;2.10;;;6.90;90.60;;;;;;5043744;28;20037;-73
2021/12/02 02:33:19;;;;;;;7.40;1.90;;;6.90;90.60;;;;;;5051096;28;20021;-73
2021/12/02 02:35:46;;;;;;;6.05;2.10;;;6.90;90.50;;;;;;5040857;28;20029;-73
2021/12/02 02:38:14;;;;;;;5.82;2.30;;;6.90;90.50;;;;;;5040175;28;20045;-73
2021/12/02 02:40:44;;;;;;;8.65;2.70;;;6.90;90.30;;;;;;5040387;28;20038;-73
2021/12/02 02:43:11;;;;;;;4.47;1.83;;;6.80;90.10;;;;;;5042669;28;20017;-73
2021/12/02 02:45:38;;;;;;;7.30;2.10;;;6.80;89.90;;;;;;5039876;28;20029;-73
2021/12/02 02:48:05;;;;;;;7.80;1.90;;;6.70;89.70;;;;;;5040286;28;20085;-73
2021/12/02 02:50:33;;;;;;;7.20;2.15;;;6.60;89.40;;;;;;5048172;28;20033;-73
2021/12/02 02:53:05;;;;;;;5.65;2.10;;;6.50;89.40;;;;;;5040263;28;20419;-73
2021/12/02 02:55:33;;;;;;;5.20;1.70;;;6.50;89.30;;;;;;5039967;28;20491;-73
2021/12/02 03:00:34;;;;;;;8.82;2.35;;;6.30;89.30;;;;;;5057207;28;20057;-73
2021/12/02 03:06:23;;;;;;;8.88;2.22;;;6.10;89.30;;;;;;5053595;28;20030;-73
2021/12/02 03:08:36;;;;;;;6.28;2.28;;;6.10;89.50;;;;;;5026035;28;20045;-73
2021/12/02 03:11:02;;;;;;;8.90;2.25;;;6.10;89.50;;;;;;5050162;28;20029;-74
2021/12/02 03:14:09;;;;;;;8.38;3.28;;;6.00;89.50;;;;;;5030667;28;20084;-73
2021/12/02 03:16:43;;;;;;;5.30;2.05;;;5.90;89.20;;;;;;5035111;28;20045;-74
2021/12/02 03:19:11;;;;;;;8.02;2.50;;;5.90;89.10;;;;;;5040715;28;20033;-73
2021/12/02 03:21:37;;;;;;;10.38;2.83;;;5.80;89.00;;;;;;5045504;28;20033;-73
2021/12/02 03:24:03;;;;;;;6.22;2.58;;;5.80;89.30;;;;;;5046239;28;20101;-73
2021/12/02 03:26:31;;;;;;;6.28;2.08;;;5.70;89.20;;;;;;5043115;28;20394;-73
2021/12/02 03:28:58;;;;;;;3.55;1.98;;;5.70;89.40;;;;;;5052158;28;20025;-73
2021/12/02 03:31:24;;;;;;;5.88;3.20;;;5.60;89.10;;;;;;5045674;28;20484;-73
2021/12/02 03:33:50;;;;;;;6.80;2.45;;;5.60;89.10;;;;;;5045415;28;20103;-73
2021/12/02 03:36:17;;;;;;;6.13;2.45;;;5.60;89.20;;;;;;5048004;28;20089;-73
2021/12/02 03:38:43;;;;;;;5.65;2.45;;;5.50;89.10;;;;;;5039310;28;20108;-73
2021/12/02 03:41:09;;;;;;;7.90;2.13;;;5.50;89.10;;;;;;5041241;28;20037;-73
2021/12/02 03:43:37;;;;;;;6.00;2.35;;;5.40;89.10;;;;;;5048594;28;20562;-73
2021/12/02 03:46:03;;;;;;;7.18;2.97;;;5.40;89.40;;;;;;5038849;28;20033;-73
2021/12/02 03:48:29;;;;;;;9.63;2.58;;;5.40;89.20;;;;;;5040979;28;20514;-73
2021/12/02 03:50:55;;;;;;;6.95;2.17;;;5.40;89.20;;;;;;5046780;28;20112;-73
2021/12/02 03:53:20;;;;;;;7.80;2.00;;;5.30;89.20;;;;;;5053954;28;20021;-73
2021/12/02 03:55:46;;;;;;;5.20;2.17;;;5.30;89.30;;;;;;5046905;28;20041;-73
2021/12/02 03:58:12;;;;;;;3.67;1.88;;;5.30;89.20;;;;;;5038882;28;20025;-73
2021/12/02 04:00:39;;;;;;;4.85;2.00;;;5.20;89.10;;;;;;5050175;28;20021;-73
2021/12/02 04:03:05;;;;;;;8.48;1.98;;;5.20;89.20;;;;;;5051876;28;20032;-73
2021/12/02 04:05:31;;;;;;;6.75;1.90;;;5.20;89.40;;;;;;5038790;28;20551;-73
2021/12/02 04:07:57;;;;;;;7.88;2.92;;;5.20;89.50;;;;;;5046922;28;20040;-73
2021/12/02 04:10:24;;;;;;;7.53;2.00;;;5.10;89.30;;;;;;5050873;28;20022;-73
2021/12/02 04:13:17;;;;;;;5.53;2.13;;;5.10;89.40;;;;;;5057352;28;20439;-73
2021/12/02 04:15:49;;;;;;;4.57;1.98;;;5.10;89.20;;;;;;5047813;28;20032;-73
2021/12/02 04:18:15;;;;;;;;;;;5.10;89.10;;;;;;5037599;28;20068;-73
2021/12/02 04:20:41;;;;;;;5.18;1.88;;;5.10;89.00;;;;;;5051404;28;19913;-73
2021/12/02 04:23:06;;;;;;;10.98;2.35;;;5.10;88.80;;;;;;5049701;28;20029;-73
2021/12/02 04:25:32;;;;;;;6.13;1.60;;;5.00;88.60;;;;;;5042393;28;20040;-73
2021/12/02 04:27:58;;;;;;;4.57;1.70;;;5.00;88.50;;;;;;5041320;28;20048;-73
2021/12/02 04:30:26;;;;;;;5.82;2.00;;;5.00;88.40;;;;;;5057038;28;20036;-73
2021/12/02 04:32:53;;;;;;;3.60;1.42;;;4.90;88.30;;;;;;5044177;28;20116;-73
2021/12/02 04:35:19;;;;;;;4.28;1.70;;;4.90;88.20;;;;;;5036851;28;20025;-73
2021/12/02 04:37:45;;;;;;;5.38;1.70;;;4.80;88.10;;;;;;5041270;28;20044;-73
2021/12/02 04:40:15;;;;;;;4.18;1.50;;;4.80;88.10;;;;;;5054772;28;20083;-73
2021/12/02 04:42:42;;;;;;;4.57;1.60;;;4.80;88.00;;;;;;5054919;28;20036;-73
2021/12/02 04:45:08;;;;;;;4.93;1.60;;;4.70;87.90;;;;;;5053693;28;20143;-73
2021/12/02 04:47:34;;;;;;;5.40;1.40;;;4.70;88.10;;;;;;5035861;28;20030;-73
2021/12/02 04:50:00;;;;;;;4.93;1.80;;;4.60;88.00;;;;;;5030517;28;20017;-73
2021/12/02 04:52:26;;;;;;;5.78;2.28;;;4.60;88.00;;;;;;5037854;28;20025;-73
2021/12/02 04:54:52;;;;;;;5.00;1.80;;;4.50;88.00;;;;;;5036396;28;20504;-73
2021/12/02 04:57:18;;;;;;;4.63;1.70;;;4.50;88.00;;;;;;5044325;28;20021;-73
2021/12/02 04:59:44;;;;;;;9.82;1.80;;;4.40;87.90;;;;;;5044223;28;20033;-73
2021/12/02 05:02:10;;;;;;;4.80;1.90;;;4.40;87.80;;;;;;5037979;28;20040;-72
2021/12/02 05:04:36;;;;;;;5.78;2.10;;;4.30;88.30;;;;;;5048823;28;20026;-73
2021/12/02 05:07:02;;;;;;;7.65;2.53;;;4.30;88.30;;;;;;5037677;28;20040;-73
2021/12/02 05:09:28;;;;;;;5.97;2.75;;;4.30;87.60;;;;;;5037413;28;20022;-73
2021/12/02 05:11:54;;;;;;;7.20;3.35;;;4.20;87.50;;;;;;5044525;28;20029;-73
2021/12/02 05:14:19;;;;;;;6.75;2.58;;;4.20;87.70;;;;;;5044638;28;20104;-73
2021/12/02 05:16:45;;;;;;;6.57;2.78;;;4.10;87.80;;;;;;5038030;28;20017;-73
2021/12/02 05:19:11;;;;;;;5.10;2.08;;;4.10;87.70;;;;;;5037663;28;20105;-73
2021/12/02 05:21:37;;;;;;;5.78;2.00;;;4.00;87.60;;;;;;5038137;28;20108;-73
2021/12/02 05:24:03;;;;;;;4.65;2.38;;;4.00;87.60;;;;;;5049699;28;20047;-73
2021/12/02 05:26:29;;;;;;;3.88;1.80;;;3.90;87.60;;;;;;5050520;28;20018;-73
2021/12/02 05:28:55;;;;;;;6.88;2.38;;;3.90;87.50;;;;;;5045821;28;20025;-72
2021/12/02 05:31:22;;;;;;;6.60;2.10;;;3.90;87.50;;;;;;5037240;28;20468;-73
2021/12/02 05:33:48;;;;;;;3.55;1.63;;;3.80;87.80;;;;;;5041690;28;20025;-73
2021/12/02 05:36:14;;;;;;;4.13;1.90;;;3.80;88.10;;;;;;5056669;28;20571;-76
2021/12/02 05:38:40;;;;;;;10.95;2.47;;;3.80;88.80;;;;;;5042039;28;20029;-77
2021/12/02 05:41:07;;;;;;;10.48;2.30;;;3.90;90.10;;;;;;5050623;28;20044;-75
2021/12/02 05:43:33;;;;;;;8.80;2.83;;;3.90;90.60;;;;;;5050196;28;20021;-76
2021/12/02 05:45:59;;;;;;;11.55;2.38;;;3.90;91.00;;;;;;5037054;28;20545;-76
2021/12/02 05:48:25;;;;;;;9.18;2.50;;;4.00;91.10;;;;;;5049220;28;20028;-76
2021/12/02 05:50:51;;;;;;;6.70;2.40;;;4.00;91.20;;;;;;5046433;28;20034;-76
2021/12/02 05:53:18;;;;;;;6.32;2.35;;;4.00;91.10;;;;;;5054185;28;20029;-77
2021/12/02 05:55:44;;;;;;;9.05;2.72;;;4.00;91.00;;;;;;5045653;28;20531;-77
2021/12/02 05:58:14;;;;;;;9.30;2.40;;;4.00;90.80;;;;;;5049303;28;20033;-75
2021/12/02 06:00:41;;;;;;;6.80;2.42;;;4.00;90.70;;;;;;5045168;28;20437;-75
2021/12/02 06:03:07;;;;;;;6.72;2.10;;;4.00;90.70;;;;;;5053695;28;20052;-74
2021/12/02 06:05:33;;;;;;;5.30;2.30;;;4.00;90.60;;;;;;5056948;28;20025;-73
2021/12/02 06:08:02;;;;;;;10.85;2.92;;;4.00;90.60;;;;;;5041786;28;20026;-78
2021/12/02 06:10:29;;;;;;;6.93;2.47;;;4.10;90.90;;;;;;5050173;28;20021;-81
2021/12/02 06:12:55;;;;;;;6.13;2.70;;;4.10;91.20;;;;;;5027039;28;20026;-81
2021/12/02 06:15:21;;;;;;;8.68;2.50;;;4.10;91.10;;;;;;5040473;28;20101;-77
2021/12/02 06:17:47;;;;;;;6.22;2.20;;;4.10;90.90;;;;;;5050685;28;20025;-80
2021/12/02 06:20:17;;;;;;;8.02;2.72;;;4.00;90.50;;;;;;5054529;28;20131;-79
2021/12/02 06:22:43;;;;;;;5.22;2.08;;;4.00;90.20;;;;;;5058450;28;20025;-84
2021/12/02 06:27:38;;;;;;;6.80;2.28;;;3.90;89.90;;;;;;5044312;28;20457;-84
2021/12/02 06:30:05;;;;;;;6.90;2.83;;;3.80;89.60;;;;;;5058742;28;20032;-84
2021/12/02 06:32:31;;;;;;;5.68;2.65;;;3.70;89.40;;;;;;5047168;28;20024;-84
2021/12/02 06:34:57;;;;;;;7.20;2.85;;;3.70;89.30;;;;;;5057384;28;20540;-84
2021/12/02 06:37:23;;;;;;;5.00;2.30;;;3.70;89.90;;;;;;5040539;28;20069;-83
2021/12/02 06:39:49;;;;;;;12.70;3.10;;;3.70;90.00;;;;;;5047941;28;20408;-83
2021/12/02 06:42:15;;;;;;;8.35;2.60;;;3.70;90.40;;;;;;5059885;28;20044;-83
2021/12/02 06:44:41;;;;;;;8.13;2.78;;;3.70;90.90;;;;;;5043601;28;20040;-84
2021/12/02 06:47:07;;;;;;;4.78;2.25;;;3.70;91.10;;;;;;5043534;28;20103;-84
2021/12/02 06:49:34;;;;;;;5.35;2.55;;;3.70;91.30;;;;;;5040122;28;20072;-85
2021/12/02 06:52:00;;;;;;;6.78;2.53;;;3.70;91.30;;;;;;5039564;28;20068;-82
2021/12/02 06:54:26;;;;;;;4.65;2.38;;;3.70;91.30;;;;;;5038844;28;20032;-82
2021/12/02 06:56:53;;;;;;;6.80;2.83;;;3.70;91.30;;;;;;5038855;28;20459;-82
2021/12/02 06:59:19;;;;;;;4.88;2.70;;;3.70;91.30;;;;;;5037994;28;20089;-81
2021/12/02 07:01:46;;;;;;;8.57;2.90;;;3.70;91.40;;;;;;5041750;28;20496;-80
2021/12/02 07:04:12;;;;;;;8.05;2.95;;;3.70;91.40;;;;;;5038752;28;20021;-82
2021/12/02 07:06:39;;;;;;;7.47;2.70;;;3.70;91.50;;;;;;5041474;28;20061;-81
2021/12/02 07:09:06;;;;;;;8.15;2.75;;;3.70;91.60;;;;;;5041241;28;20010;-81
2021/12/02 07:11:33;;;;;;;8.35;2.92;;;3.60;91.60;;;;;;5038474;28;20026;-81
2021/12/02 07:14:07;;;;;;;7.93;3.38;;;3.70;91.70;;;;;;5038382;28;20031;-82
2021/12/02 07:16:33;;;;;;;5.80;2.20;;;3.70;91.90;;;;;;5038894;28;20034;-80
2021/12/02 07:19:02;;;;;;;5.32;2.50;;;3.70;91.80;;;;;;5037622;28;20546;-79
2021/12/02 07:21:28;;;;;;;9.48;3.47;;;3.70;91.60;;;;;;5037836;28;20132;-79
2021/12/02 07:23:54;;;;;;;10.10;3.45;;;3.70;91.60;;;;;;5037109;28;20033;-79
2021/12/02 07:26:20;;;;;;;6.57;3.08;;;3.70;91.60;;;;;;5038224;28;20029;-79
2021/12/02 07:28:47;;;;;;;5.65;2.83;;;3.60;91.60;;;;;;5037973;28;20097;-79
2021/12/02 07:31:13;;;;;;;8.57;2.88;;;3.60;91.60;;;;;;5038358;28;20075;-80
2021/12/02 07:33:42;;;;;;;7.93;3.03;;;3.60;91.70;;;;;;5039536;28;20026;-79
2021/12/02 07:36:08;;;;;;;6.95;2.60;;;3.60;91.80;;;;;;5039303;28;20079;-79
2021/12/02 07:38:38;;;;;;;4.72;2.40;;;3.50;91.70;;;;;;5039384;28;20041;-79
2021/12/02 07:41:04;;;;;;;7.88;2.95;;;3.50;91.50;;;;;;5037814;28;20059;-79
2021/12/02 07:43:33;;;;;;;8.20;2.40;;;3.50;91.20;;;;;;5036222;28;20046;-79
2021/12/02 07:46:00;;;;;;;6.30;2.30;;;3.50;91.50;;;;;;5026021;28;20018;-79
2021/12/02 07:48:26;;;;;;;10.10;2.85;;;3.50;91.80;;;;;;5037743;28;20092;-79
2021/12/02 07:51:00;;;;;;;11.13;3.55;;;3.50;91.80;;;;;;5039074;28;20828;-79
2021/12/02 07:53:27;;;;;;;8.77;3.05;;;3.50;91.90;;;;;;5039079;28;20033;-80
2021/12/02 07:55:55;;;;;;;8.98;3.08;;;3.60;92.10;;;;;;5038031;28;20037;-79
2021/12/02 07:58:22;;;;;;;10.90;3.40;;;3.60;92.30;;;;;;5039001;28;20540;-79
2021/12/02 08:00:49;;;;;;;6.15;2.80;;;3.60;92.20;;;;;;5037419;28;20034;-80
2021/12/02 08:03:16;;;;;;;5.43;2.75;;;3.60;92.20;;;;;;5037512;28;20030;-79
2021/12/02 08:05:42;;;;;;;6.72;2.70;;;3.60;92.10;;;;;;5037587;28;20081;-79
2021/12/02 08:08:11;;;;;;;5.80;3.10;;;3.60;92.00;;;;;;5037820;28;20056;-79
2021/12/02 08:10:37;;;;;;;7.03;3.65;;;3.50;91.80;;;;;;5038124;28;20022;-79
2021/12/02 08:13:04;;;;;;;8.02;4.78;;;3.50;91.60;;;;;;5037182;28;20032;-79
2021/12/02 08:15:30;;;;;;;10.27;6.03;;;3.50;91.40;;;;;;5038352;28;20095;-79
2021/12/02 08:17:58;;;;;;;18.95;11.20;;;3.50;91.20;;;;;;5037616;28;20029;-79
2021/12/02 08:20:25;;;;;;;26.15;14.35;;;3.50;91.00;;;;;;5038508;28;20053;-79
2021/12/02 08:22:52;;;;;;;30.55;17.52;;;3.50;91.00;;;;;;5038547;28;20029;-79
2021/12/02 08:25:20;;;;;;;37.67;19.50;;;3.50;90.90;;;;;;5036917;28;20070;-79
2021/12/02 08:27:46;;;;;;;30.42;14.50;;;3.50;90.90;;;;;;5038435;28;20025;-79
2021/12/02 08:30:15;;;;;;;27.42;12.25;;;3.50;91.20;;;;;;5038088;28;20532;-78
2021/12/02 08:32:42;;;;;;;11.27;5.72;;;3.60;91.30;;;;;;5037077;28;20033;-79
2021/12/02 08:35:09;;;;;;;11.95;4.65;;;3.70;91.60;;;;;;5037346;28;20112;-79
2021/12/02 08:37:39;;;;;;;10.18;3.78;;;3.90;92.00;;;;;;5038011;28;20463;-78
2021/12/02 08:40:06;;;;;;;9.05;3.90;;;4.00;92.20;;;;;;5037837;28;20419;-78
2021/12/02 08:42:32;;;;;;;8.55;3.25;;;4.10;92.30;;;;;;5036712;28;20036;-79
2021/12/02 08:44:59;;;;;;;7.32;3.17;;;4.20;92.40;;;;;;5036434;28;20362;-79
2021/12/02 08:47:27;;;;;;;7.28;3.20;;;4.40;92.40;;;;;;5038414;28;20022;-79
2021/12/02 08:49:54;;;;;;;9.32;2.90;;;4.50;92.40;;;;;;5036528;28;20051;-79
2021/12/02 08:52:22;;;;;;;10.77;2.80;;;4.70;92.30;;;;;;5037826;28;20047;-79
2021/12/02 08:54:51;;;;;;;5.15;2.70;;;4.80;92.10;;;;;;5037640;28;20432;-79
2021/12/02 08:57:19;;;;;;;11.77;3.20;;;4.90;91.90;;;;;;5038179;28;20043;-79
2021/12/02 08:59:45;;;;;;;8.38;3.05;;;5.00;91.60;;;;;;5037278;28;20029;-79
2021/12/02 09:02:11;;;;;;;7.82;2.83;;;5.10;91.30;;;;;;5036274;28;20040;-79
2021/12/02 09:04:38;;;;;;;8.27;3.22;;;5.10;91.00;;;;;;5037690;28;20448;-79
2021/12/02 09:07:05;;;;;;;11.45;3.17;;;5.20;90.90;;;;;;5036616;28;20041;-80
2021/12/02 09:09:31;;;;;;;13.30;3.55;;;5.30;90.70;;;;;;5036537;28;20072;-80
2021/12/02 09:11:57;;;;;;;8.38;3.38;;;5.30;90.40;;;;;;5036610;28;20035;-79
2021/12/02 09:14:24;;;;;;;10.30;3.60;;;5.40;90.40;;;;;;5037519;28;20033;-79
2021/12/02 09:16:51;;;;;;;11.13;3.20;;;5.40;90.50;;;;;;5036323;28;20047;-79
2021/12/02 09:19:18;;;;;;;8.15;3.63;;;5.50;90.40;;;;;;5037656;28;20500;-79
2021/12/02 09:21:44;;;;;;;6.85;2.67;;;5.60;90.70;;;;;;5035978;28;20041;-79
2021/12/02 09:24:18;;;;;;;8.57;3.10;;;5.80;90.30;;;;;;5037072;28;20029;-79
2021/12/02 09:26:47;;;;;;;7.95;3.20;;;5.90;90.10;;;;;;5037274;28;20052;-79
2021/12/02 09:29:18;;;;;;;9.52;3.53;;;6.00;89.80;;;;;;5036199;28;20049;-79
2021/12/02 09:31:45;;;;;;;8.55;3.22;;;6.00;89.40;;;;;;5036490;28;20036;-80
2021/12/02 09:34:11;;;;;;;9.45;3.00;;;6.10;89.10;;;;;;5037384;28;20030;-80
2021/12/02 09:36:37;;;;;;;10.70;3.38;;;6.10;88.90;;;;;;5036996;28;20046;-80
2021/12/02 09:39:05;;;;;;;8.50;2.88;;;6.10;88.60;;;;;;5036143;28;20076;-80
2021/12/02 09:41:31;;;;;;;9.75;2.95;;;6.10;88.60;;;;;;5035962;28;20392;-80
2021/12/02 09:43:57;;;;;;;9.55;3.13;;;6.00;88.50;;;;;;5036185;28;20025;-79
2021/12/02 09:46:23;;;;;;;9.15;3.40;;;6.00;88.40;;;;;;5037069;28;20036;-79
2021/12/02 09:48:49;;;;;;;10.95;4.32;;;6.10;88.60;;;;;;5035982;28;20022;-79
2021/12/02 09:51:27;;;;;;;10.35;3.88;;;6.10;88.70;;;;;;5037015;28;20060;-80
2021/12/02 09:53:56;;;;;;;7.88;3.17;;;6.20;89.00;;;;;;5036206;28;20036;-79
2021/12/02 09:56:28;;;;;;;6.40;2.65;;;6.50;89.70;;;;;;5035782;28;20080;-80
2021/12/02 09:58:57;;;;;;;6.78;2.97;;;6.90;89.10;;;;;;5037043;28;20087;-79
2021/12/02 10:01:30;;;;;;;9.65;2.90;;;7.20;86.40;;;;;;5037087;28;20056;-81
2021/12/02 10:04:01;;;;;;;9.57;2.63;;;7.20;85.00;;;;;;5036123;28;20064;-80
2021/12/02 10:06:30;;;;;;;9.48;2.72;;;7.10;84.80;;;;;;5036186;28;20025;-80
2021/12/02 10:11:59;;;;;;;8.45;2.83;;;7.20;85.10;;;;;;5037075;28;20112;-79
2021/12/02 10:14:36;;;;;;;11.10;2.90;;;7.20;84.40;;;;;;5036651;28;20116;-80
2021/12/02 10:17:11;;;;;;;10.18;3.28;;;7.20;84.10;;;;;;5037220;28;20087;-80
2021/12/02 10:19:37;;;;;;;9.90;2.95;;;7.20;84.40;;;;;;5036139;28;20036;-81
2021/12/02 10:22:07;;;;;;;7.10;2.50;;;7.20;84.40;;;;;;5035412;28;20028;-80
2021/12/02 10:24:42;;;;;;;6.40;2.90;;;7.20;84.00;;;;;;5036238;28;20026;-80
2021/12/02 10:27:09;;;;;;;9.98;3.05;;;7.10;84.00;;;;;;5037025;28;20026;-80
2021/12/02 10:29:39;;;;;;;7.70;2.63;;;7.10;84.20;;;;;;5036756;28;21305;-79
2021/12/02 10:32:09;;;;;;;7.53;3.08;;;7.10;84.50;;;;;;5035301;28;20053;-79
2021/12/02 10:35:06;;;;;;;8.90;3.88;;;7.00;85.10;;;;;;5038105;28;20542;-80
2021/12/02 10:37:40;;;;;;;9.63;2.90;;;7.00;85.60;;;;;;5039388;28;20128;-80
2021/12/02 10:40:10;;;;;;;8.02;2.80;;;6.90;86.10;;;;;;5038908;28;20396;-80
2021/12/02 10:42:41;;;;;;;6.15;2.70;;;6.90;86.70;;;;;;5040535;28;20056;-80
2021/12/02 10:45:17;;;;;;;6.53;3.28;;;6.90;87.20;;;;;;5039907;28;20083;-80
2021/12/02 10:47:51;;;;;;;10.95;3.20;;;6.80;87.50;;;;;;5038868;28;20025;-80
2021/12/02 10:50:18;;;;;;;6.93;2.88;;;6.80;87.90;;;;;;5039198;28;20042;-79
2021/12/02 10:52:44;;;;;;;7.28;2.70;;;6.80;88.60;;;;;;5038862;28;20037;-79
2021/12/02 10:55:16;;;;;;;7.03;2.75;;;6.80;89.20;;;;;;5040223;28;20044;-79
2021/12/02 10:58:01;;;;;;;5.63;2.00;;;6.80;89.90;;;;;;5039128;28;20047;-79
2021/12/02 11:00:30;;;;;;;5.57;2.45;;;6.90;90.40;;;;;;5038698;28;20037;-80
2021/12/02 11:02:58;;;;;;;4.63;1.80;;;7.00;90.30;;;;;;5038721;28;20064;-80
2021/12/02 11:05:30;;;;;;;5.15;1.70;;;7.10;90.30;;;;;;5038720;28;20071;-80
2021/12/02 11:08:05;;;;;;;4.80;2.03;;;7.20;90.20;;;;;;5040053;28;20028;-80
2021/12/02 11:10:46;;;;;;;5.30;1.90;;;7.20;90.00;;;;;;5039686;28;20499;-80
2021/12/02 11:13:22;;;;;;;5.00;2.30;;;7.30;90.20;;;;;;5038877;28;20037;-79
2021/12/02 11:15:47;;;;;;;3.22;1.50;;;7.50;90.30;;;;;;5039538;28;20056;-79
2021/12/02 11:18:16;;;;;;;3.35;1.40;;;7.70;90.10;;;;;;5038478;28;20087;-80
2021/12/02 11:20:47;;;;;;;3.80;1.77;;;7.80;89.20;;;;;;5038242;28;20018;-80
2021/12/02 11:23:27;;;;;;;6.63;2.00;;;7.90;89.00;;;;;;5039841;28;20028;-80
2021/12/02 11:26:08;;;;;;;4.47;2.30;;;7.90;88.10;;;;;;5039668;28;20427;-80
2021/12/02 11:28:36;;;;;;;5.00;2.00;;;8.00;88.00;;;;;;5039263;28;20448;-80
2021/12/02 11:31:16;;;;;;;5.13;2.08;;;8.00;88.00;;;;;;5039608;28;20024;-79
2021/12/02 11:33:45;;;;;;;7.60;1.98;;;8.00;87.60;;;;;;5039833;28;20021;-80
2021/12/02 11:36:22;;;;;;;5.85;1.80;;;8.00;87.20;;;;;;5039236;28;20017;-79
2021/12/02 11:38:51;;;;;;;4.07;1.60;;;7.90;88.10;;;;;;5038647;28;20040;-80
2021/12/02 11:41:19;;;;;;;5.53;1.88;;;7.90;87.80;;;;;;5037834;28;20080;-80
2021/12/02 11:43:45;;;;;;;3.63;1.40;;;7.80;88.10;;;;;;5038997;28;20022;-79
2021/12/02 11:46:11;;;;;;;6.20;1.83;;;7.80;87.90;;;;;;5039351;28;20022;-79
2021/12/02 11:48:41;;;;;;;6.53;1.80;;;7.80;87.90;;;;;;5039269;28;20384;-79
2021/12/02 11:51:14;;;;;;;7.72;2.00;;;7.80;87.80;;;;;;5039022;28;20021;-80
2021/12/02 11:53:40;;;;;;;4.72;1.90;;;7.90;88.00;;;;;;5038938;28;20032;-80
2021/12/02 11:56:16;;;;;;;3.88;1.65;;;8.00;88.00;;;;;;5037564;28;20558;-80
2021/12/02 11:58:42;;;;;;;6.00;2.03;;;8.10;86.70;;;;;;5037364;28;20033;-79
2021/12/02 12:01:14;;;;;;;2.92;1.52;;;8.10;86.90;;;;;;5038621;28;20641;-80
2021/12/02 12:03:48;;;;;;;4.07;1.60;;;8.30;86.70;;;;;;5037514;28;20025;-80
2021/12/02 12:06:33;;;;;;;6.18;1.55;;;8.50;86.10;;;;;;5037732;28;20029;-80
2021/12/02 12:09:00;;;;;;;3.05;1.30;;;8.80;86.00;;;;;;5037482;28;20048;-80
2021/12/02 12:11:31;;;;;;;5.60;2.50;;;9.00;85.40;;;;;;5037639;28;20117;-81
2021/12/02 12:14:03;;;;;;;3.77;1.30;;;9.30;85.50;;;;;;5038412;28;20052;-80
2021/12/02 12:16:37;;;;;;;4.03;1.50;;;9.60;82.70;;;;;;5039174;28;20797;-80
2021/12/02 12:19:32;;;;;;;3.35;1.60;;;9.80;82.00;;;;;;5038683;28;20488;-81
2021/12/02 12:22:05;;;;;;;3.95;1.73;;;9.80;81.40;;;;;;5037439;28;20037;-80
2021/12/02 12:24:47;;;;;;;;;;;9.70;80.30;;;;;;5038896;28;20393;-80
2021/12/02 12:27:18;;;;;;;4.50;2.70;;;9.60;81.20;;;;;;5038486;28;19940;-80
2021/12/02 12:29:49;;;;;;;5.10;2.63;;;9.40;81.90;;;;;;5038103;28;20021;-80
2021/12/02 12:34:53;;;;;;;10.00;3.72;;;9.20;83.30;;;;;;5038443;28;20387;-81
2021/12/02 12:37:23;;;;;;;13.50;4.78;;;9.10;83.70;;;;;;5038267;28;20044;-81
2021/12/02 12:40:15;;;;;;;7.53;1.90;;;9.00;83.90;;;;;;5036976;28;20041;-80
2021/12/02 12:43:06;;;;;;;4.05;1.40;;;8.90;83.80;;;;;;5038126;28;20072;-80
2021/12/02 12:45:39;;;;;;;7.50;1.80;;;8.80;83.70;;;;;;5027769;28;20029;-80
2021/12/02 12:48:07;;;;;;;4.50;2.35;;;8.80;83.20;;;;;;5037877;28;20026;-80
2021/12/02 12:50:41;;;;;;;3.80;1.70;;;8.70;82.90;;;;;;5037895;28;20024;-80
2021/12/02 12:53:09;;;;;;;5.28;2.40;;;8.80;83.30;;;;;;5036721;28;20043;-80
2021/12/02 12:55:59;;;;;;;7.20;3.10;;;8.80;83.70;;;;;;5037760;28;20049;-80
2021/12/02 12:58:29;;;;;;;5.80;2.47;;;8.90;84.50;;;;;;5037046;28;20476;-80
2021/12/02 13:01:00;;;;;;;6.28;2.38;;;9.10;85.10;;;;;;5037650;28;20026;-80
2021/12/02 13:03:32;;;;;;;5.45;2.28;;;9.40;85.10;;;;;;5037901;28;20484;-80
2021/12/02 13:06:13;;;;;;;4.40;2.00;;;9.50;83.50;;;;;;5038078;28;20025;-80
2021/12/02 13:08:49;;;;;;;5.93;2.80;;;9.60;83.00;;;;;;5037696;28;20042;-80
2021/12/02 13:11:32;;;;;;;5.50;2.55;;;9.80;83.40;;;;;;5037872;28;20080;-80
2021/12/02 13:14:00;;;;;;;4.75;1.60;;;9.90;83.30;;;;;;5037236;28;20025;-80
2021/12/02 13:16:25;;;;;;;4.68;1.80;;;10.10;83.10;;;;;;5037869;28;20484;-80
2021/12/02 13:19:00;;;;;;;5.38;2.00;;;10.20;82.60;;;;;;5037633;28;20099;-80
2021/12/02 13:21:29;;;;;;;8.07;2.00;;;10.20;82.10;;;;;;5037620;28;20029;-80
2021/12/02 13:24:00;;;;;;;3.83;1.42;;;10.20;81.90;;;;;;5037326;28;20028;-80